Search for airport 
image banner adimage banner adimage banner ad
image banner ad

KMDT - Harrisburg Intl

Located in Harrisburg, United States

ICAO - MDT, IATA - MDT

Data provided by Airmate  

General information

Coordinates: N40°11'35" W76°45'45"
Elevation is 310 feet MSL.
Magnetic variation is -11° East
View others Airports in Pennsylvania

Operational data

Special qualification required
Current time UTC:
Current local time:
Weather
METAR: KMDT 091356Z 00000KT 10SM FEW080 OVC100 10/02 A3008 RMK AO2 SLP187 T01000017 $
TAF: KMDT 091131Z 0912/1012 30006KT P6SM BKN100 FM091600 19007KT 5SM -RA BR OVC025 FM100400 35007KT 3SM -RA BR BKN009 OVC018 FM101000 34008G16KT P6SM BKN015 OVC025
View NOTAMs / SUP AIP / TFR affecting this airport [VIEW]
Communications frequencies: [VIEW]

Runways:

RWY identifierQFULength (ft)Width (ft)SurfaceLDA (ft)
13117°10001200ASPH8070
31297°10001200ASPH8129

Airport contact information

Address: Harrisburg United States

Other aviation service providers

Flight schools

Harrisburg Pilots

Harrisburg Pilots

Satellite view of KMDT